sensor_id;sensor_type;location;lat;lon;timestamp;P1;durP1;ratioP1;P2;durP2;ratioP2
37785;SDS011;23625;48.784;9.336;2022-12-29T00:02:12;4.57;;;2.03;;
37785;SDS011;23625;48.784;9.336;2022-12-29T00:04:38;5.15;;;1.80;;
37785;SDS011;23625;48.784;9.336;2022-12-29T00:07:03;7.20;;;2.03;;
37785;SDS011;23625;48.784;9.336;2022-12-29T00:09:30;7.43;;;2.13;;
37785;SDS011;23625;48.784;9.336;2022-12-29T00:11:56;4.72;;;2.10;;
37785;SDS011;23625;48.784;9.336;2022-12-29T00:14:22;4.07;;;1.80;;
37785;SDS011;23625;48.784;9.336;2022-12-29T00:17:07;2.85;;;1.73;;
37785;SDS011;23625;48.784;9.336;2022-12-29T00:19:32;5.85;;;1.80;;
37785;SDS011;23625;48.784;9.336;2022-12-29T00:22:16;5.97;;;2.40;;
37785;SDS011;23625;48.784;9.336;2022-12-29T00:25:01;6.10;;;2.30;;
37785;SDS011;23625;48.784;9.336;2022-12-29T00:27:30;8.43;;;2.00;;
37785;SDS011;23625;48.784;9.336;2022-12-29T00:30:19;5.40;;;2.00;;
37785;SDS011;23625;48.784;9.336;2022-12-29T00:33:08;6.18;;;2.25;;
37785;SDS011;23625;48.784;9.336;2022-12-29T00:36:06;5.38;;;1.80;;
37785;SDS011;23625;48.784;9.336;2022-12-29T00:39:03;15.35;;;4.50;;
37785;SDS011;23625;48.784;9.336;2022-12-29T00:41:52;6.90;;;2.78;;
37785;SDS011;23625;48.784;9.336;2022-12-29T00:44:36;15.95;;;4.78;;
37785;SDS011;23625;48.784;9.336;2022-12-29T00:47:02;12.60;;;5.05;;
37785;SDS011;23625;48.784;9.336;2022-12-29T00:49:29;35.33;;;9.20;;
37785;SDS011;23625;48.784;9.336;2022-12-29T00:51:55;46.08;;;12.50;;
37785;SDS011;23625;48.784;9.336;2022-12-29T00:54:35;22.65;;;7.63;;
37785;SDS011;23625;48.784;9.336;2022-12-29T00:57:02;38.90;;;9.75;;
37785;SDS011;23625;48.784;9.336;2022-12-29T00:59:28;35.38;;;9.27;;
37785;SDS011;23625;48.784;9.336;2022-12-29T01:01:54;56.88;;;16.25;;
37785;SDS011;23625;48.784;9.336;2022-12-29T01:04:21;33.28;;;9.95;;
37785;SDS011;23625;48.784;9.336;2022-12-29T01:06:49;17.17;;;4.53;;
37785;SDS011;23625;48.784;9.336;2022-12-29T01:09:15;8.27;;;1.90;;
37785;SDS011;23625;48.784;9.336;2022-12-29T01:12:00;4.15;;;1.80;;
37785;SDS011;23625;48.784;9.336;2022-12-29T01:14:27;5.07;;;2.28;;
37785;SDS011;23625;48.784;9.336;2022-12-29T01:16:53;4.03;;;1.67;;
37785;SDS011;23625;48.784;9.336;2022-12-29T01:19:19;3.35;;;1.80;;
37785;SDS011;23625;48.784;9.336;2022-12-29T01:21:45;3.65;;;1.60;;
37785;SDS011;23625;48.784;9.336;2022-12-29T01:24:12;4.00;;;1.80;;
37785;SDS011;23625;48.784;9.336;2022-12-29T01:26:38;3.75;;;1.88;;
37785;SDS011;23625;48.784;9.336;2022-12-29T01:29:04;7.50;;;3.20;;
37785;SDS011;23625;48.784;9.336;2022-12-29T01:31:29;15.15;;;4.13;;
37785;SDS011;23625;48.784;9.336;2022-12-29T01:33:55;7.72;;;3.42;;
37785;SDS011;23625;48.784;9.336;2022-12-29T01:36:20;4.85;;;2.03;;
37785;SDS011;23625;48.784;9.336;2022-12-29T01:38:46;6.78;;;2.83;;
37785;SDS011;23625;48.784;9.336;2022-12-29T01:41:13;11.23;;;2.10;;
37785;SDS011;23625;48.784;9.336;2022-12-29T01:43:53;7.93;;;2.05;;
37785;SDS011;23625;48.784;9.336;2022-12-29T01:51:33;6.95;;;1.48;;
37785;SDS011;23625;48.784;9.336;2022-12-29T01:54:04;5.05;;;2.28;;
37785;SDS011;23625;48.784;9.336;2022-12-29T01:56:34;8.10;;;2.30;;
37785;SDS011;23625;48.784;9.336;2022-12-29T01:59:02;5.57;;;1.95;;
37785;SDS011;23625;48.784;9.336;2022-12-29T02:01:31;5.10;;;2.08;;
37785;SDS011;23625;48.784;9.336;2022-12-29T02:03:57;10.52;;;4.68;;
37785;SDS011;23625;48.784;9.336;2022-12-29T02:06:25;8.88;;;2.90;;
37785;SDS011;23625;48.784;9.336;2022-12-29T02:09:11;20.42;;;7.82;;
37785;SDS011;23625;48.784;9.336;2022-12-29T02:11:36;10.30;;;1.75;;
37785;SDS011;23625;48.784;9.336;2022-12-29T02:14:13;4.50;;;1.83;;
37785;SDS011;23625;48.784;9.336;2022-12-29T02:16:49;4.70;;;1.38;;
37785;SDS011;23625;48.784;9.336;2022-12-29T02:22:14;3.78;;;1.83;;
37785;SDS011;23625;48.784;9.336;2022-12-29T02:25:14;2.78;;;1.50;;
37785;SDS011;23625;48.784;9.336;2022-12-29T02:35:45;3.65;;;1.90;;
37785;SDS011;23625;48.784;9.336;2022-12-29T02:40:42;7.60;;;1.70;;
37785;SDS011;23625;48.784;9.336;2022-12-29T02:43:39;7.43;;;1.95;;
37785;SDS011;23625;48.784;9.336;2022-12-29T02:49:11;4.00;;;1.52;;
37785;SDS011;23625;48.784;9.336;2022-12-29T02:52:18;32.25;;;11.48;;
37785;SDS011;23625;48.784;9.336;2022-12-29T02:54:48;10.25;;;4.25;;
37785;SDS011;23625;48.784;9.336;2022-12-29T02:57:15;9.52;;;2.63;;
37785;SDS011;23625;48.784;9.336;2022-12-29T03:02:50;12.18;;;2.47;;
37785;SDS011;23625;48.784;9.336;2022-12-29T03:11:12;5.25;;;1.73;;
37785;SDS011;23625;48.784;9.336;2022-12-29T03:17:26;3.17;;;1.20;;
37785;SDS011;23625;48.784;9.336;2022-12-29T03:20:04;5.68;;;1.70;;
37785;SDS011;23625;48.784;9.336;2022-12-29T03:22:34;4.82;;;1.92;;
37785;SDS011;23625;48.784;9.336;2022-12-29T03:28:02;5.68;;;1.60;;
37785;SDS011;23625;48.784;9.336;2022-12-29T03:30:28;2.97;;;1.30;;
37785;SDS011;23625;48.784;9.336;2022-12-29T03:32:57;5.75;;;2.05;;
37785;SDS011;23625;48.784;9.336;2022-12-29T03:35:26;4.53;;;2.30;;
37785;SDS011;23625;48.784;9.336;2022-12-29T03:40:39;5.13;;;2.08;;
37785;SDS011;23625;48.784;9.336;2022-12-29T03:43:08;3.20;;;1.30;;
37785;SDS011;23625;48.784;9.336;2022-12-29T03:45:35;2.28;;;1.17;;
37785;SDS011;23625;48.784;9.336;2022-12-29T03:48:00;6.90;;;1.67;;
37785;SDS011;23625;48.784;9.336;2022-12-29T03:50:26;3.45;;;1.20;;
37785;SDS011;23625;48.784;9.336;2022-12-29T03:52:52;7.75;;;1.95;;
37785;SDS011;23625;48.784;9.336;2022-12-29T03:55:17;3.92;;;1.30;;
37785;SDS011;23625;48.784;9.336;2022-12-29T03:57:43;5.55;;;1.50;;
37785;SDS011;23625;48.784;9.336;2022-12-29T04:00:08;4.15;;;1.30;;
37785;SDS011;23625;48.784;9.336;2022-12-29T04:02:34;2.35;;;1.20;;
37785;SDS011;23625;48.784;9.336;2022-12-29T04:05:00;3.85;;;1.05;;
37785;SDS011;23625;48.784;9.336;2022-12-29T04:07:26;2.58;;;1.23;;
37785;SDS011;23625;48.784;9.336;2022-12-29T04:09:51;5.55;;;1.25;;
37785;SDS011;23625;48.784;9.336;2022-12-29T04:12:17;2.67;;;1.10;;
37785;SDS011;23625;48.784;9.336;2022-12-29T04:14:42;5.22;;;1.48;;
37785;SDS011;23625;48.784;9.336;2022-12-29T04:17:08;5.18;;;1.17;;
37785;SDS011;23625;48.784;9.336;2022-12-29T04:19:33;5.25;;;1.20;;
37785;SDS011;23625;48.784;9.336;2022-12-29T04:21:59;3.55;;;1.05;;
37785;SDS011;23625;48.784;9.336;2022-12-29T04:24:25;3.38;;;1.42;;
37785;SDS011;23625;48.784;9.336;2022-12-29T04:26:50;4.57;;;1.42;;
37785;SDS011;23625;48.784;9.336;2022-12-29T04:29:16;2.95;;;1.20;;
37785;SDS011;23625;48.784;9.336;2022-12-29T04:31:41;8.05;;;1.30;;
37785;SDS011;23625;48.784;9.336;2022-12-29T04:34:07;1.55;;;0.95;;
37785;SDS011;23625;48.784;9.336;2022-12-29T04:36:32;4.35;;;1.27;;
37785;SDS011;23625;48.784;9.336;2022-12-29T04:38:58;4.90;;;1.40;;
37785;SDS011;23625;48.784;9.336;2022-12-29T04:41:24;8.70;;;3.33;;
37785;SDS011;23625;48.784;9.336;2022-12-29T04:43:49;5.50;;;1.10;;
37785;SDS011;23625;48.784;9.336;2022-12-29T04:46:15;3.03;;;1.40;;
37785;SDS011;23625;48.784;9.336;2022-12-29T04:48:41;2.05;;;1.05;;
37785;SDS011;23625;48.784;9.336;2022-12-29T04:51:07;6.53;;;1.00;;
37785;SDS011;23625;48.784;9.336;2022-12-29T04:53:32;8.43;;;1.45;;
37785;SDS011;23625;48.784;9.336;2022-12-29T04:55:58;4.32;;;1.25;;
37785;SDS011;23625;48.784;9.336;2022-12-29T04:58:24;4.55;;;1.45;;
37785;SDS011;23625;48.784;9.336;2022-12-29T05:00:50;4.55;;;1.42;;
37785;SDS011;23625;48.784;9.336;2022-12-29T05:03:16;4.75;;;1.23;;
37785;SDS011;23625;48.784;9.336;2022-12-29T05:05:42;7.07;;;1.45;;
37785;SDS011;23625;48.784;9.336;2022-12-29T05:08:07;4.78;;;2.10;;
37785;SDS011;23625;48.784;9.336;2022-12-29T05:10:33;4.30;;;1.15;;
37785;SDS011;23625;48.784;9.336;2022-12-29T05:12:58;7.28;;;1.77;;
37785;SDS011;23625;48.784;9.336;2022-12-29T05:15:24;1.60;;;0.93;;
37785;SDS011;23625;48.784;9.336;2022-12-29T05:17:50;5.35;;;1.52;;
37785;SDS011;23625;48.784;9.336;2022-12-29T05:20:16;5.85;;;1.35;;
37785;SDS011;23625;48.784;9.336;2022-12-29T05:22:41;2.85;;;1.25;;
37785;SDS011;23625;48.784;9.336;2022-12-29T05:25:07;7.90;;;1.60;;
37785;SDS011;23625;48.784;9.336;2022-12-29T05:27:33;1.90;;;1.10;;
37785;SDS011;23625;48.784;9.336;2022-12-29T05:29:59;5.57;;;1.40;;
37785;SDS011;23625;48.784;9.336;2022-12-29T05:32:24;3.97;;;1.08;;
37785;SDS011;23625;48.784;9.336;2022-12-29T05:34:50;5.00;;;2.30;;
37785;SDS011;23625;48.784;9.336;2022-12-29T05:37:16;3.00;;;1.45;;
37785;SDS011;23625;48.784;9.336;2022-12-29T05:39:41;2.85;;;0.80;;
37785;SDS011;23625;48.784;9.336;2022-12-29T05:42:07;3.33;;;1.58;;
37785;SDS011;23625;48.784;9.336;2022-12-29T05:44:32;6.90;;;1.52;;
37785;SDS011;23625;48.784;9.336;2022-12-29T05:46:58;2.78;;;1.05;;
37785;SDS011;23625;48.784;9.336;2022-12-29T05:49:23;2.53;;;1.30;;
37785;SDS011;23625;48.784;9.336;2022-12-29T05:51:49;1.80;;;1.02;;
37785;SDS011;23625;48.784;9.336;2022-12-29T05:54:15;2.85;;;1.40;;
37785;SDS011;23625;48.784;9.336;2022-12-29T05:56:40;4.63;;;1.52;;
37785;SDS011;23625;48.784;9.336;2022-12-29T05:59:06;4.22;;;1.23;;
37785;SDS011;23625;48.784;9.336;2022-12-29T06:01:32;3.15;;;1.63;;
37785;SDS011;23625;48.784;9.336;2022-12-29T06:03:59;2.33;;;1.30;;
37785;SDS011;23625;48.784;9.336;2022-12-29T06:06:25;1.63;;;1.10;;
37785;SDS011;23625;48.784;9.336;2022-12-29T06:08:50;3.20;;;1.48;;
37785;SDS011;23625;48.784;9.336;2022-12-29T06:11:16;4.93;;;1.55;;
37785;SDS011;23625;48.784;9.336;2022-12-29T06:13:42;5.05;;;1.52;;
37785;SDS011;23625;48.784;9.336;2022-12-29T06:16:07;3.75;;;1.10;;
37785;SDS011;23625;48.784;9.336;2022-12-29T06:18:33;2.10;;;1.10;;
37785;SDS011;23625;48.784;9.336;2022-12-29T06:20:59;2.05;;;1.08;;
37785;SDS011;23625;48.784;9.336;2022-12-29T06:23:29;9.02;;;1.75;;
37785;SDS011;23625;48.784;9.336;2022-12-29T06:25:55;2.58;;;0.98;;
37785;SDS011;23625;48.784;9.336;2022-12-29T06:28:21;7.47;;;1.77;;
37785;SDS011;23625;48.784;9.336;2022-12-29T06:30:48;3.13;;;1.30;;
37785;SDS011;23625;48.784;9.336;2022-12-29T06:33:13;2.00;;;1.15;;
37785;SDS011;23625;48.784;9.336;2022-12-29T06:35:41;2.63;;;1.33;;
37785;SDS011;23625;48.784;9.336;2022-12-29T06:38:07;3.28;;;1.40;;
37785;SDS011;23625;48.784;9.336;2022-12-29T06:40:32;1.52;;;1.08;;
37785;SDS011;23625;48.784;9.336;2022-12-29T06:42:58;4.20;;;1.75;;
37785;SDS011;23625;48.784;9.336;2022-12-29T06:45:24;6.78;;;2.15;;
37785;SDS011;23625;48.784;9.336;2022-12-29T06:47:49;2.55;;;1.30;;
37785;SDS011;23625;48.784;9.336;2022-12-29T06:50:15;2.88;;;1.58;;
37785;SDS011;23625;48.784;9.336;2022-12-29T06:52:40;3.60;;;1.20;;
37785;SDS011;23625;48.784;9.336;2022-12-29T06:55:06;2.78;;;1.27;;
37785;SDS011;23625;48.784;9.336;2022-12-29T06:57:32;4.00;;;1.05;;
37785;SDS011;23625;48.784;9.336;2022-12-29T06:59:57;3.95;;;1.60;;
37785;SDS011;23625;48.784;9.336;2022-12-29T07:02:23;3.55;;;1.35;;
37785;SDS011;23625;48.784;9.336;2022-12-29T07:04:50;4.57;;;1.80;;
37785;SDS011;23625;48.784;9.336;2022-12-29T07:07:17;3.58;;;1.25;;
37785;SDS011;23625;48.784;9.336;2022-12-29T07:09:43;13.60;;;5.43;;
37785;SDS011;23625;48.784;9.336;2022-12-29T07:12:10;10.43;;;5.18;;
37785;SDS011;23625;48.784;9.336;2022-12-29T07:14:35;3.80;;;1.95;;
37785;SDS011;23625;48.784;9.336;2022-12-29T07:17:01;3.70;;;1.67;;
37785;SDS011;23625;48.784;9.336;2022-12-29T07:19:30;5.00;;;1.38;;
37785;SDS011;23625;48.784;9.336;2022-12-29T07:21:56;2.25;;;1.25;;
37785;SDS011;23625;48.784;9.336;2022-12-29T07:24:24;2.67;;;1.20;;
37785;SDS011;23625;48.784;9.336;2022-12-29T07:26:53;2.15;;;1.20;;
37785;SDS011;23625;48.784;9.336;2022-12-29T07:29:18;5.95;;;1.50;;
37785;SDS011;23625;48.784;9.336;2022-12-29T07:31:44;3.40;;;1.73;;
37785;SDS011;23625;48.784;9.336;2022-12-29T07:34:09;5.05;;;2.38;;
37785;SDS011;23625;48.784;9.336;2022-12-29T07:36:35;9.57;;;3.70;;
37785;SDS011;23625;48.784;9.336;2022-12-29T07:39:01;5.00;;;1.50;;
37785;SDS011;23625;48.784;9.336;2022-12-29T07:41:27;5.70;;;1.50;;
37785;SDS011;23625;48.784;9.336;2022-12-29T07:43:53;9.23;;;1.80;;
37785;SDS011;23625;48.784;9.336;2022-12-29T07:46:18;4.28;;;1.70;;
37785;SDS011;23625;48.784;9.336;2022-12-29T07:48:44;5.00;;;1.45;;
37785;SDS011;23625;48.784;9.336;2022-12-29T07:51:09;5.50;;;1.50;;
37785;SDS011;23625;48.784;9.336;2022-12-29T07:53:36;4.65;;;1.58;;
37785;SDS011;23625;48.784;9.336;2022-12-29T07:56:01;8.20;;;1.48;;
37785;SDS011;23625;48.784;9.336;2022-12-29T07:58:27;4.10;;;1.85;;
37785;SDS011;23625;48.784;9.336;2022-12-29T08:00:56;5.38;;;1.63;;
37785;SDS011;23625;48.784;9.336;2022-12-29T08:03:22;3.47;;;1.23;;
37785;SDS011;23625;48.784;9.336;2022-12-29T08:05:48;3.20;;;1.50;;
37785;SDS011;23625;48.784;9.336;2022-12-29T08:08:14;4.35;;;1.30;;
37785;SDS011;23625;48.784;9.336;2022-12-29T08:10:40;4.47;;;1.45;;
37785;SDS011;23625;48.784;9.336;2022-12-29T08:13:05;3.13;;;1.40;;
37785;SDS011;23625;48.784;9.336;2022-12-29T08:15:31;8.20;;;2.30;;
37785;SDS011;23625;48.784;9.336;2022-12-29T08:17:56;4.40;;;1.33;;
37785;SDS011;23625;48.784;9.336;2022-12-29T08:20:22;5.97;;;1.77;;
37785;SDS011;23625;48.784;9.336;2022-12-29T08:22:48;4.53;;;1.20;;
37785;SDS011;23625;48.784;9.336;2022-12-29T08:25:13;2.85;;;1.45;;
37785;SDS011;23625;48.784;9.336;2022-12-29T08:27:39;2.08;;;1.33;;
37785;SDS011;23625;48.784;9.336;2022-12-29T08:30:05;2.47;;;1.20;;
37785;SDS011;23625;48.784;9.336;2022-12-29T08:32:31;2.78;;;1.15;;
37785;SDS011;23625;48.784;9.336;2022-12-29T08:34:56;5.28;;;1.45;;
37785;SDS011;23625;48.784;9.336;2022-12-29T08:37:22;3.60;;;1.52;;
37785;SDS011;23625;48.784;9.336;2022-12-29T08:39:48;3.22;;;1.20;;
37785;SDS011;23625;48.784;9.336;2022-12-29T08:42:13;1.65;;;1.17;;
37785;SDS011;23625;48.784;9.336;2022-12-29T08:44:39;5.85;;;1.88;;
37785;SDS011;23625;48.784;9.336;2022-12-29T08:47:04;1.92;;;1.15;;
37785;SDS011;23625;48.784;9.336;2022-12-29T08:49:30;2.40;;;1.48;;
37785;SDS011;23625;48.784;9.336;2022-12-29T08:51:56;9.10;;;2.50;;
37785;SDS011;23625;48.784;9.336;2022-12-29T08:54:22;4.15;;;1.20;;
37785;SDS011;23625;48.784;9.336;2022-12-29T08:56:47;4.13;;;1.35;;
37785;SDS011;23625;48.784;9.336;2022-12-29T08:59:13;3.35;;;1.33;;
37785;SDS011;23625;48.784;9.336;2022-12-29T09:01:39;2.13;;;1.00;;
37785;SDS011;23625;48.784;9.336;2022-12-29T09:04:05;2.40;;;1.40;;
37785;SDS011;23625;48.784;9.336;2022-12-29T09:06:31;3.53;;;1.10;;
37785;SDS011;23625;48.784;9.336;2022-12-29T09:08:57;4.13;;;1.45;;
37785;SDS011;23625;48.784;9.336;2022-12-29T09:11:23;3.08;;;1.45;;
37785;SDS011;23625;48.784;9.336;2022-12-29T09:13:50;6.13;;;2.30;;
37785;SDS011;23625;48.784;9.336;2022-12-29T09:16:17;3.35;;;1.38;;
37785;SDS011;23625;48.784;9.336;2022-12-29T09:18:45;4.38;;;1.80;;
37785;SDS011;23625;48.784;9.336;2022-12-29T09:21:10;5.78;;;2.22;;
37785;SDS011;23625;48.784;9.336;2022-12-29T09:23:37;4.97;;;1.50;;
37785;SDS011;23625;48.784;9.336;2022-12-29T09:26:03;4.20;;;2.00;;
37785;SDS011;23625;48.784;9.336;2022-12-29T09:28:29;7.25;;;3.78;;
37785;SDS011;23625;48.784;9.336;2022-12-29T09:30:55;7.82;;;1.17;;
37785;SDS011;23625;48.784;9.336;2022-12-29T09:33:22;4.53;;;1.00;;
37785;SDS011;23625;48.784;9.336;2022-12-29T09:35:55;11.50;;;1.52;;
37785;SDS011;23625;48.784;9.336;2022-12-29T09:38:22;3.15;;;1.45;;
37785;SDS011;23625;48.784;9.336;2022-12-29T09:40:50;5.20;;;2.78;;
37785;SDS011;23625;48.784;9.336;2022-12-29T09:51:41;4.97;;;1.65;;
37785;SDS011;23625;48.784;9.336;2022-12-29T09:54:20;2.28;;;1.45;;
37785;SDS011;23625;48.784;9.336;2022-12-29T09:57:15;2.65;;;1.42;;
37785;SDS011;23625;48.784;9.336;2022-12-29T10:00:13;5.43;;;1.60;;
37785;SDS011;23625;48.784;9.336;2022-12-29T10:05:16;2.13;;;1.30;;
37785;SDS011;23625;48.784;9.336;2022-12-29T10:08:20;2.08;;;1.13;;
37785;SDS011;23625;48.784;9.336;2022-12-29T10:16:40;3.97;;;1.60;;
37785;SDS011;23625;48.784;9.336;2022-12-29T10:24:50;2.63;;;1.73;;
37785;SDS011;23625;48.784;9.336;2022-12-29T10:27:19;5.70;;;1.52;;
37785;SDS011;23625;48.784;9.336;2022-12-29T10:29:49;2.42;;;1.30;;
37785;SDS011;23625;48.784;9.336;2022-12-29T10:35:04;4.10;;;1.80;;
37785;SDS011;23625;48.784;9.336;2022-12-29T10:40:43;2.28;;;1.17;;
37785;SDS011;23625;48.784;9.336;2022-12-29T10:45:54;2.45;;;1.58;;
37785;SDS011;23625;48.784;9.336;2022-12-29T10:48:28;1.70;;;1.15;;
37785;SDS011;23625;48.784;9.336;2022-12-29T10:50:57;5.47;;;1.63;;
37785;SDS011;23625;48.784;9.336;2022-12-29T10:53:43;6.68;;;1.45;;
37785;SDS011;23625;48.784;9.336;2022-12-29T10:59:16;2.65;;;1.08;;
37785;SDS011;23625;48.784;9.336;2022-12-29T11:06:57;8.40;;;1.42;;
37785;SDS011;23625;48.784;9.336;2022-12-29T11:09:25;7.57;;;1.63;;
37785;SDS011;23625;48.784;9.336;2022-12-29T11:11:54;6.78;;;1.50;;
37785;SDS011;23625;48.784;9.336;2022-12-29T11:14:27;7.55;;;1.50;;
37785;SDS011;23625;48.784;9.336;2022-12-29T11:16:58;6.95;;;1.42;;
37785;SDS011;23625;48.784;9.336;2022-12-29T11:19:26;3.67;;;1.42;;
37785;SDS011;23625;48.784;9.336;2022-12-29T11:22:12;4.10;;;1.45;;
37785;SDS011;23625;48.784;9.336;2022-12-29T11:24:53;8.90;;;1.95;;
37785;SDS011;23625;48.784;9.336;2022-12-29T11:27:21;7.25;;;1.67;;
37785;SDS011;23625;48.784;9.336;2022-12-29T11:29:49;7.57;;;1.80;;
37785;SDS011;23625;48.784;9.336;2022-12-29T11:32:20;7.20;;;1.50;;
37785;SDS011;23625;48.784;9.336;2022-12-29T11:34:47;6.47;;;1.35;;
37785;SDS011;23625;48.784;9.336;2022-12-29T11:37:58;4.30;;;1.60;;
37785;SDS011;23625;48.784;9.336;2022-12-29T11:40:15;2.95;;;1.20;;
37785;SDS011;23625;48.784;9.336;2022-12-29T11:45:18;5.43;;;1.42;;
37785;SDS011;23625;48.784;9.336;2022-12-29T11:47:44;6.07;;;1.65;;
37785;SDS011;23625;48.784;9.336;2022-12-29T11:50:19;6.82;;;1.48;;
37785;SDS011;23625;48.784;9.336;2022-12-29T11:52:56;5.85;;;1.40;;
37785;SDS011;23625;48.784;9.336;2022-12-29T11:55:56;5.38;;;1.65;;
37785;SDS011;23625;48.784;9.336;2022-12-29T12:01:03;6.38;;;1.30;;
37785;SDS011;23625;48.784;9.336;2022-12-29T12:03:52;2.83;;;1.50;;
37785;SDS011;23625;48.784;9.336;2022-12-29T12:06:28;5.18;;;1.90;;
37785;SDS011;23625;48.784;9.336;2022-12-29T12:08:59;4.70;;;1.60;;
37785;SDS011;23625;48.784;9.336;2022-12-29T12:11:33;5.70;;;2.53;;
37785;SDS011;23625;48.784;9.336;2022-12-29T12:14:16;2.67;;;1.35;;
37785;SDS011;23625;48.784;9.336;2022-12-29T12:16:57;2.15;;;0.95;;
37785;SDS011;23625;48.784;9.336;2022-12-29T12:22:43;5.18;;;1.92;;
37785;SDS011;23625;48.784;9.336;2022-12-29T12:25:24;3.72;;;1.63;;
37785;SDS011;23625;48.784;9.336;2022-12-29T12:30:45;2.63;;;1.23;;
37785;SDS011;23625;48.784;9.336;2022-12-29T12:33:25;2.05;;;1.27;;
37785;SDS011;23625;48.784;9.336;2022-12-29T12:44:28;6.18;;;1.27;;
37785;SDS011;23625;48.784;9.336;2022-12-29T12:47:12;8.90;;;1.63;;
37785;SDS011;23625;48.784;9.336;2022-12-29T13:01:37;5.68;;;1.50;;
37785;SDS011;23625;48.784;9.336;2022-12-29T13:04:52;4.35;;;1.70;;
37785;SDS011;23625;48.784;9.336;2022-12-29T13:12:38;4.13;;;1.60;;
37785;SDS011;23625;48.784;9.336;2022-12-29T13:15:32;3.85;;;1.73;;
37785;SDS011;23625;48.784;9.336;2022-12-29T13:21:14;6.38;;;1.85;;
37785;SDS011;23625;48.784;9.336;2022-12-29T13:24:04;3.72;;;1.45;;
37785;SDS011;23625;48.784;9.336;2022-12-29T13:26:42;4.70;;;1.98;;
37785;SDS011;23625;48.784;9.336;2022-12-29T13:32:35;6.80;;;1.75;;
37785;SDS011;23625;48.784;9.336;2022-12-29T13:35:56;3.97;;;1.40;;
37785;SDS011;23625;48.784;9.336;2022-12-29T13:38:24;3.10;;;1.52;;
37785;SDS011;23625;48.784;9.336;2022-12-29T13:41:16;5.88;;;1.52;;
37785;SDS011;23625;48.784;9.336;2022-12-29T13:43:52;4.63;;;1.63;;
37785;SDS011;23625;48.784;9.336;2022-12-29T13:46:21;2.10;;;1.40;;
37785;SDS011;23625;48.784;9.336;2022-12-29T13:49:32;4.25;;;1.42;;
37785;SDS011;23625;48.784;9.336;2022-12-29T13:51:40;2.22;;;1.20;;
37785;SDS011;23625;48.784;9.336;2022-12-29T13:54:15;4.60;;;1.42;;
37785;SDS011;23625;48.784;9.336;2022-12-29T13:57:20;5.38;;;1.58;;
37785;SDS011;23625;48.784;9.336;2022-12-29T13:59:59;7.40;;;3.92;;
37785;SDS011;23625;48.784;9.336;2022-12-29T14:07:45;4.43;;;1.88;;
37785;SDS011;23625;48.784;9.336;2022-12-29T14:13:18;5.10;;;1.38;;
37785;SDS011;23625;48.784;9.336;2022-12-29T14:15:54;4.40;;;1.60;;
37785;SDS011;23625;48.784;9.336;2022-12-29T14:18:23;1.90;;;1.25;;
37785;SDS011;23625;48.784;9.336;2022-12-29T14:20:53;5.60;;;1.55;;
37785;SDS011;23625;48.784;9.336;2022-12-29T14:25:57;3.03;;;1.80;;
37785;SDS011;23625;48.784;9.336;2022-12-29T14:28:33;6.20;;;2.30;;
37785;SDS011;23625;48.784;9.336;2022-12-29T14:34:27;5.10;;;1.58;;
37785;SDS011;23625;48.784;9.336;2022-12-29T14:39:30;8.60;;;2.17;;
37785;SDS011;23625;48.784;9.336;2022-12-29T14:42:00;4.55;;;1.83;;
37785;SDS011;23625;48.784;9.336;2022-12-29T14:49:55;6.05;;;1.88;;
37785;SDS011;23625;48.784;9.336;2022-12-29T14:52:22;5.55;;;1.50;;
37785;SDS011;23625;48.784;9.336;2022-12-29T14:54:56;6.00;;;1.58;;
37785;SDS011;23625;48.784;9.336;2022-12-29T14:57:35;7.53;;;2.63;;
37785;SDS011;23625;48.784;9.336;2022-12-29T15:00:06;6.63;;;2.47;;
37785;SDS011;23625;48.784;9.336;2022-12-29T15:02:40;3.50;;;1.55;;
37785;SDS011;23625;48.784;9.336;2022-12-29T15:05:32;5.28;;;1.65;;
37785;SDS011;23625;48.784;9.336;2022-12-29T15:08:02;5.13;;;2.60;;
37785;SDS011;23625;48.784;9.336;2022-12-29T15:10:32;6.03;;;2.10;;
37785;SDS011;23625;48.784;9.336;2022-12-29T15:13:04;6.35;;;1.80;;
37785;SDS011;23625;48.784;9.336;2022-12-29T15:15:38;4.77;;;2.23;;
37785;SDS011;23625;48.784;9.336;2022-12-29T15:20:50;3.93;;;1.77;;
37785;SDS011;23625;48.784;9.336;2022-12-29T15:23:19;4.70;;;1.48;;
37785;SDS011;23625;48.784;9.336;2022-12-29T15:25:50;7.15;;;2.08;;
37785;SDS011;23625;48.784;9.336;2022-12-29T15:28:26;4.15;;;1.48;;
37785;SDS011;23625;48.784;9.336;2022-12-29T15:31:04;5.13;;;1.75;;
37785;SDS011;23625;48.784;9.336;2022-12-29T15:33:36;7.80;;;2.22;;
37785;SDS011;23625;48.784;9.336;2022-12-29T15:36:09;3.55;;;1.73;;
37785;SDS011;23625;48.784;9.336;2022-12-29T15:38:37;2.90;;;1.58;;
37785;SDS011;23625;48.784;9.336;2022-12-29T15:41:11;3.28;;;2.00;;
37785;SDS011;23625;48.784;9.336;2022-12-29T15:47:10;4.50;;;1.58;;
37785;SDS011;23625;48.784;9.336;2022-12-29T15:49:47;4.60;;;2.63;;
37785;SDS011;23625;48.784;9.336;2022-12-29T15:52:17;4.60;;;2.78;;
37785;SDS011;23625;48.784;9.336;2022-12-29T15:54:48;5.90;;;1.80;;
37785;SDS011;23625;48.784;9.336;2022-12-29T15:57:22;2.75;;;1.63;;
37785;SDS011;23625;48.784;9.336;2022-12-29T15:59:50;3.85;;;2.00;;
37785;SDS011;23625;48.784;9.336;2022-12-29T16:02:16;3.38;;;1.90;;
37785;SDS011;23625;48.784;9.336;2022-12-29T16:04:42;18.63;;;6.68;;
37785;SDS011;23625;48.784;9.336;2022-12-29T16:07:20;5.45;;;2.70;;
37785;SDS011;23625;48.784;9.336;2022-12-29T16:09:58;8.35;;;1.80;;
37785;SDS011;23625;48.784;9.336;2022-12-29T16:12:32;5.97;;;2.55;;
37785;SDS011;23625;48.784;9.336;2022-12-29T16:15:02;4.55;;;1.38;;
37785;SDS011;23625;48.784;9.336;2022-12-29T16:17:29;3.55;;;1.48;;
37785;SDS011;23625;48.784;9.336;2022-12-29T16:20:01;8.13;;;2.25;;
37785;SDS011;23625;48.784;9.336;2022-12-29T16:22:34;4.18;;;1.45;;
37785;SDS011;23625;48.784;9.336;2022-12-29T16:27:52;9.90;;;4.45;;
37785;SDS011;23625;48.784;9.336;2022-12-29T16:30:29;1.85;;;1.10;;
37785;SDS011;23625;48.784;9.336;2022-12-29T16:32:56;4.47;;;1.00;;
37785;SDS011;23625;48.784;9.336;2022-12-29T16:35:27;1.58;;;1.10;;
37785;SDS011;23625;48.784;9.336;2022-12-29T16:38:12;3.53;;;1.75;;
37785;SDS011;23625;48.784;9.336;2022-12-29T16:41:15;2.38;;;1.52;;
37785;SDS011;23625;48.784;9.336;2022-12-29T16:44:10;4.97;;;1.50;;
37785;SDS011;23625;48.784;9.336;2022-12-29T16:46:55;1.73;;;1.13;;
37785;SDS011;23625;48.784;9.336;2022-12-29T16:49:32;3.03;;;1.13;;
37785;SDS011;23625;48.784;9.336;2022-12-29T16:51:59;1.75;;;1.10;;
37785;SDS011;23625;48.784;9.336;2022-12-29T16:54:33;0.82;;;0.70;;
37785;SDS011;23625;48.784;9.336;2022-12-29T16:57:01;2.33;;;0.90;;
37785;SDS011;23625;48.784;9.336;2022-12-29T16:59:32;2.75;;;0.60;;
37785;SDS011;23625;48.784;9.336;2022-12-29T17:02:10;1.00;;;0.60;;
37785;SDS011;23625;48.784;9.336;2022-12-29T17:04:39;8.93;;;1.30;;
37785;SDS011;23625;48.784;9.336;2022-12-29T17:07:24;10.85;;;5.28;;
37785;SDS011;23625;48.784;9.336;2022-12-29T17:09:51;12.20;;;6.43;;
37785;SDS011;23625;48.784;9.336;2022-12-29T17:12:27;11.05;;;4.55;;
37785;SDS011;23625;48.784;9.336;2022-12-29T17:14:55;6.30;;;1.67;;
37785;SDS011;23625;48.784;9.336;2022-12-29T17:20:00;2.67;;;0.80;;
37785;SDS011;23625;48.784;9.336;2022-12-29T17:22:31;3.13;;;0.85;;
37785;SDS011;23625;48.784;9.336;2022-12-29T17:24:58;2.45;;;0.80;;
37785;SDS011;23625;48.784;9.336;2022-12-29T17:30:02;1.75;;;1.23;;
37785;SDS011;23625;48.784;9.336;2022-12-29T17:32:36;5.68;;;2.17;;
37785;SDS011;23625;48.784;9.336;2022-12-29T17:35:02;3.67;;;2.53;;
37785;SDS011;23625;48.784;9.336;2022-12-29T17:37:36;7.97;;;0.90;;
37785;SDS011;23625;48.784;9.336;2022-12-29T17:40:02;2.30;;;1.30;;
37785;SDS011;23625;48.784;9.336;2022-12-29T17:42:30;13.20;;;6.65;;
37785;SDS011;23625;48.784;9.336;2022-12-29T17:45:00;17.80;;;9.48;;
37785;SDS011;23625;48.784;9.336;2022-12-29T17:47:26;8.88;;;2.88;;